sensor_id;sensor_type;location;lat;lon;timestamp;P1;durP1;ratioP1;P2;durP2;ratioP2
7045;SDS011;3564;53.326;10.356;2023-02-05T00:02:07;4.93;;;3.80;;
7045;SDS011;3564;53.326;10.356;2023-02-05T00:04:33;3.50;;;3.17;;
7045;SDS011;3564;53.326;10.356;2023-02-05T00:07:00;4.77;;;3.20;;
7045;SDS011;3564;53.326;10.356;2023-02-05T00:09:25;3.23;;;2.70;;
7045;SDS011;3564;53.326;10.356;2023-02-05T00:11:52;3.47;;;2.43;;
7045;SDS011;3564;53.326;10.356;2023-02-05T00:14:18;3.43;;;2.60;;
7045;SDS011;3564;53.326;10.356;2023-02-05T00:16:44;3.80;;;3.30;;
7045;SDS011;3564;53.326;10.356;2023-02-05T00:19:10;4.53;;;3.13;;
7045;SDS011;3564;53.326;10.356;2023-02-05T00:21:35;3.67;;;2.50;;
7045;SDS011;3564;53.326;10.356;2023-02-05T00:24:01;2.57;;;1.80;;
7045;SDS011;3564;53.326;10.356;2023-02-05T00:26:27;3.60;;;2.50;;
7045;SDS011;3564;53.326;10.356;2023-02-05T00:28:52;3.10;;;2.10;;
7045;SDS011;3564;53.326;10.356;2023-02-05T00:31:19;2.37;;;2.13;;
7045;SDS011;3564;53.326;10.356;2023-02-05T00:33:46;3.50;;;2.30;;
7045;SDS011;3564;53.326;10.356;2023-02-05T00:36:13;2.70;;;2.40;;
7045;SDS011;3564;53.326;10.356;2023-02-05T00:38:40;2.90;;;2.00;;
7045;SDS011;3564;53.326;10.356;2023-02-05T00:41:07;4.47;;;2.23;;
7045;SDS011;3564;53.326;10.356;2023-02-05T00:43:34;2.47;;;2.27;;
7045;SDS011;3564;53.326;10.356;2023-02-05T00:45:59;3.90;;;2.50;;
7045;SDS011;3564;53.326;10.356;2023-02-05T00:48:25;3.23;;;2.30;;
7045;SDS011;3564;53.326;10.356;2023-02-05T00:50:51;6.67;;;3.37;;
7045;SDS011;3564;53.326;10.356;2023-02-05T00:53:17;3.63;;;2.40;;
7045;SDS011;3564;53.326;10.356;2023-02-05T00:55:44;2.60;;;2.30;;
7045;SDS011;3564;53.326;10.356;2023-02-05T00:58:10;2.57;;;2.10;;
7045;SDS011;3564;53.326;10.356;2023-02-05T01:00:35;2.50;;;1.90;;
7045;SDS011;3564;53.326;10.356;2023-02-05T01:03:01;2.63;;;2.20;;
7045;SDS011;3564;53.326;10.356;2023-02-05T01:05:27;2.53;;;2.10;;
7045;SDS011;3564;53.326;10.356;2023-02-05T01:07:54;4.70;;;1.90;;
7045;SDS011;3564;53.326;10.356;2023-02-05T01:10:20;2.60;;;1.83;;
7045;SDS011;3564;53.326;10.356;2023-02-05T01:12:47;2.23;;;1.83;;
7045;SDS011;3564;53.326;10.356;2023-02-05T01:15:13;5.20;;;1.97;;
7045;SDS011;3564;53.326;10.356;2023-02-05T01:17:39;3.73;;;2.00;;
7045;SDS011;3564;53.326;10.356;2023-02-05T01:20:04;2.53;;;2.10;;
7045;SDS011;3564;53.326;10.356;2023-02-05T01:22:31;2.73;;;2.00;;
7045;SDS011;3564;53.326;10.356;2023-02-05T01:24:56;2.23;;;1.60;;
7045;SDS011;3564;53.326;10.356;2023-02-05T01:27:22;4.23;;;3.40;;
7045;SDS011;3564;53.326;10.356;2023-02-05T01:29:48;1.90;;;1.70;;
7045;SDS011;3564;53.326;10.356;2023-02-05T01:32:14;1.80;;;1.70;;
7045;SDS011;3564;53.326;10.356;2023-02-05T01:34:40;2.47;;;1.80;;
7045;SDS011;3564;53.326;10.356;2023-02-05T01:37:08;2.97;;;2.10;;
7045;SDS011;3564;53.326;10.356;2023-02-05T01:39:34;2.30;;;1.80;;
7045;SDS011;3564;53.326;10.356;2023-02-05T01:42:01;1.87;;;1.73;;
7045;SDS011;3564;53.326;10.356;2023-02-05T01:44:39;2.50;;;1.80;;
7045;SDS011;3564;53.326;10.356;2023-02-05T01:47:04;2.97;;;2.07;;
7045;SDS011;3564;53.326;10.356;2023-02-05T01:49:31;2.37;;;2.03;;
7045;SDS011;3564;53.326;10.356;2023-02-05T01:52:03;2.00;;;1.70;;
7045;SDS011;3564;53.326;10.356;2023-02-05T01:54:32;2.63;;;1.87;;
7045;SDS011;3564;53.326;10.356;2023-02-05T01:57:05;1.90;;;1.80;;
7045;SDS011;3564;53.326;10.356;2023-02-05T01:59:36;4.87;;;1.90;;
7045;SDS011;3564;53.326;10.356;2023-02-05T02:02:05;2.00;;;1.80;;
7045;SDS011;3564;53.326;10.356;2023-02-05T02:04:42;2.00;;;1.80;;
7045;SDS011;3564;53.326;10.356;2023-02-05T02:07:16;2.43;;;1.90;;
7045;SDS011;3564;53.326;10.356;2023-02-05T02:09:45;2.50;;;1.70;;
7045;SDS011;3564;53.326;10.356;2023-02-05T02:12:13;2.37;;;2.00;;
7045;SDS011;3564;53.326;10.356;2023-02-05T02:14:43;1.90;;;1.80;;
7045;SDS011;3564;53.326;10.356;2023-02-05T02:17:13;2.17;;;1.77;;
7045;SDS011;3564;53.326;10.356;2023-02-05T02:19:44;2.00;;;1.80;;
7045;SDS011;3564;53.326;10.356;2023-02-05T02:31:22;2.00;;;1.80;;
7045;SDS011;3564;53.326;10.356;2023-02-05T02:34:02;3.07;;;1.90;;
7045;SDS011;3564;53.326;10.356;2023-02-05T02:36:46;2.00;;;1.80;;
7045;SDS011;3564;53.326;10.356;2023-02-05T02:39:36;3.43;;;2.10;;
7045;SDS011;3564;53.326;10.356;2023-02-05T02:42:20;2.77;;;1.93;;
7045;SDS011;3564;53.326;10.356;2023-02-05T02:44:58;1.83;;;1.60;;
7045;SDS011;3564;53.326;10.356;2023-02-05T02:47:27;2.33;;;1.90;;
7045;SDS011;3564;53.326;10.356;2023-02-05T02:49:59;1.80;;;1.70;;
7045;SDS011;3564;53.326;10.356;2023-02-05T02:52:29;2.47;;;1.83;;
7045;SDS011;3564;53.326;10.356;2023-02-05T02:55:03;1.97;;;1.80;;
7045;SDS011;3564;53.326;10.356;2023-02-05T02:57:34;2.20;;;2.00;;
7045;SDS011;3564;53.326;10.356;2023-02-05T03:00:03;2.30;;;1.80;;
7045;SDS011;3564;53.326;10.356;2023-02-05T03:02:36;2.30;;;1.73;;
7045;SDS011;3564;53.326;10.356;2023-02-05T03:05:05;3.33;;;2.00;;
7045;SDS011;3564;53.326;10.356;2023-02-05T03:07:38;2.00;;;1.80;;
7045;SDS011;3564;53.326;10.356;2023-02-05T03:10:11;1.90;;;1.80;;
7045;SDS011;3564;53.326;10.356;2023-02-05T03:12:44;2.20;;;1.93;;
7045;SDS011;3564;53.326;10.356;2023-02-05T03:15:10;2.40;;;1.80;;
7045;SDS011;3564;53.326;10.356;2023-02-05T03:17:37;3.57;;;2.13;;
7045;SDS011;3564;53.326;10.356;2023-02-05T03:22:29;2.10;;;1.90;;
7045;SDS011;3564;53.326;10.356;2023-02-05T03:24:55;2.67;;;2.30;;
7045;SDS011;3564;53.326;10.356;2023-02-05T03:27:20;3.07;;;1.90;;
7045;SDS011;3564;53.326;10.356;2023-02-05T03:29:47;3.40;;;2.10;;
7045;SDS011;3564;53.326;10.356;2023-02-05T03:34:49;2.50;;;1.97;;
7045;SDS011;3564;53.326;10.356;2023-02-05T03:37:18;2.20;;;2.00;;
7045;SDS011;3564;53.326;10.356;2023-02-05T03:48:11;1.97;;;1.80;;
7045;SDS011;3564;53.326;10.356;2023-02-05T03:53:46;2.00;;;1.80;;
7045;SDS011;3564;53.326;10.356;2023-02-05T03:56:27;2.60;;;1.90;;
7045;SDS011;3564;53.326;10.356;2023-02-05T03:58:57;3.23;;;2.00;;
7045;SDS011;3564;53.326;10.356;2023-02-05T04:01:24;4.47;;;2.20;;
7045;SDS011;3564;53.326;10.356;2023-02-05T04:03:50;2.50;;;2.00;;
7045;SDS011;3564;53.326;10.356;2023-02-05T04:06:16;2.30;;;2.10;;
7045;SDS011;3564;53.326;10.356;2023-02-05T04:08:41;2.90;;;2.10;;
7045;SDS011;3564;53.326;10.356;2023-02-05T04:11:09;2.63;;;2.10;;
7045;SDS011;3564;53.326;10.356;2023-02-05T04:13:35;3.30;;;2.10;;
7045;SDS011;3564;53.326;10.356;2023-02-05T04:16:01;3.10;;;2.17;;
7045;SDS011;3564;53.326;10.356;2023-02-05T04:18:26;2.53;;;2.10;;
7045;SDS011;3564;53.326;10.356;2023-02-05T04:20:52;2.30;;;1.83;;
7045;SDS011;3564;53.326;10.356;2023-02-05T04:23:17;3.10;;;2.00;;
7045;SDS011;3564;53.326;10.356;2023-02-05T04:25:43;2.93;;;2.20;;
7045;SDS011;3564;53.326;10.356;2023-02-05T04:28:09;2.63;;;2.23;;
7045;SDS011;3564;53.326;10.356;2023-02-05T04:30:34;2.33;;;2.10;;
7045;SDS011;3564;53.326;10.356;2023-02-05T04:33:00;4.30;;;2.00;;
7045;SDS011;3564;53.326;10.356;2023-02-05T04:35:26;2.70;;;2.20;;
7045;SDS011;3564;53.326;10.356;2023-02-05T04:37:51;2.20;;;2.00;;
7045;SDS011;3564;53.326;10.356;2023-02-05T04:40:17;3.23;;;2.23;;
7045;SDS011;3564;53.326;10.356;2023-02-05T04:42:42;3.43;;;2.07;;
7045;SDS011;3564;53.326;10.356;2023-02-05T04:45:10;2.83;;;2.00;;
7045;SDS011;3564;53.326;10.356;2023-02-05T04:47:36;2.63;;;2.07;;
7045;SDS011;3564;53.326;10.356;2023-02-05T04:50:02;2.60;;;2.00;;
7045;SDS011;3564;53.326;10.356;2023-02-05T04:52:28;2.57;;;2.03;;
7045;SDS011;3564;53.326;10.356;2023-02-05T04:54:53;3.10;;;2.20;;
7045;SDS011;3564;53.326;10.356;2023-02-05T04:57:19;2.40;;;1.97;;
7045;SDS011;3564;53.326;10.356;2023-02-05T04:59:44;2.20;;;2.00;;
7045;SDS011;3564;53.326;10.356;2023-02-05T05:02:10;4.43;;;2.33;;
7045;SDS011;3564;53.326;10.356;2023-02-05T05:04:37;2.47;;;1.97;;
7045;SDS011;3564;53.326;10.356;2023-02-05T05:07:03;3.23;;;2.30;;
7045;SDS011;3564;53.326;10.356;2023-02-05T05:09:29;4.20;;;2.13;;
7045;SDS011;3564;53.326;10.356;2023-02-05T05:11:54;2.60;;;2.40;;
7045;SDS011;3564;53.326;10.356;2023-02-05T05:14:20;2.87;;;2.07;;
7045;SDS011;3564;53.326;10.356;2023-02-05T05:16:47;2.30;;;1.97;;
7045;SDS011;3564;53.326;10.356;2023-02-05T05:19:13;3.67;;;2.30;;
7045;SDS011;3564;53.326;10.356;2023-02-05T05:21:39;2.70;;;2.20;;
7045;SDS011;3564;53.326;10.356;2023-02-05T05:24:04;6.27;;;2.20;;
7045;SDS011;3564;53.326;10.356;2023-02-05T05:26:31;2.90;;;2.20;;
7045;SDS011;3564;53.326;10.356;2023-02-05T05:28:57;3.23;;;2.20;;
7045;SDS011;3564;53.326;10.356;2023-02-05T05:31:23;2.30;;;2.10;;
7045;SDS011;3564;53.326;10.356;2023-02-05T05:33:49;3.33;;;2.23;;
7045;SDS011;3564;53.326;10.356;2023-02-05T05:36:15;3.20;;;2.43;;
7045;SDS011;3564;53.326;10.356;2023-02-05T05:38:41;2.23;;;1.93;;
7045;SDS011;3564;53.326;10.356;2023-02-05T05:41:09;4.77;;;2.67;;
7045;SDS011;3564;53.326;10.356;2023-02-05T05:44:06;3.73;;;2.17;;
7045;SDS011;3564;53.326;10.356;2023-02-05T05:46:32;3.60;;;1.87;;
7045;SDS011;3564;53.326;10.356;2023-02-05T05:48:59;3.30;;;2.70;;
7045;SDS011;3564;53.326;10.356;2023-02-05T05:51:28;3.30;;;2.43;;
7045;SDS011;3564;53.326;10.356;2023-02-05T05:53:56;3.33;;;2.30;;
7045;SDS011;3564;53.326;10.356;2023-02-05T05:56:22;2.30;;;2.00;;
7045;SDS011;3564;53.326;10.356;2023-02-05T05:58:48;3.90;;;2.10;;
7045;SDS011;3564;53.326;10.356;2023-02-05T06:01:15;3.33;;;2.47;;
7045;SDS011;3564;53.326;10.356;2023-02-05T06:03:41;3.93;;;2.27;;
7045;SDS011;3564;53.326;10.356;2023-02-05T06:06:07;4.43;;;2.23;;
7045;SDS011;3564;53.326;10.356;2023-02-05T06:08:34;3.63;;;2.40;;
7045;SDS011;3564;53.326;10.356;2023-02-05T06:11:00;2.60;;;2.23;;
7045;SDS011;3564;53.326;10.356;2023-02-05T06:13:26;3.23;;;2.50;;
7045;SDS011;3564;53.326;10.356;2023-02-05T06:15:51;3.37;;;2.43;;
7045;SDS011;3564;53.326;10.356;2023-02-05T06:18:18;5.60;;;2.57;;
7045;SDS011;3564;53.326;10.356;2023-02-05T06:20:45;3.73;;;2.67;;
7045;SDS011;3564;53.326;10.356;2023-02-05T06:23:11;2.73;;;2.43;;
7045;SDS011;3564;53.326;10.356;2023-02-05T06:25:37;2.70;;;2.20;;
7045;SDS011;3564;53.326;10.356;2023-02-05T06:28:02;3.77;;;2.33;;
7045;SDS011;3564;53.326;10.356;2023-02-05T06:30:28;2.90;;;2.30;;
7045;SDS011;3564;53.326;10.356;2023-02-05T06:32:54;2.90;;;2.60;;
7045;SDS011;3564;53.326;10.356;2023-02-05T06:35:20;3.03;;;2.60;;
7045;SDS011;3564;53.326;10.356;2023-02-05T06:37:45;3.33;;;2.40;;
7045;SDS011;3564;53.326;10.356;2023-02-05T06:40:11;3.93;;;2.53;;
7045;SDS011;3564;53.326;10.356;2023-02-05T06:42:37;3.80;;;2.67;;
7045;SDS011;3564;53.326;10.356;2023-02-05T06:45:03;3.80;;;2.70;;
7045;SDS011;3564;53.326;10.356;2023-02-05T06:47:29;4.63;;;2.77;;
7045;SDS011;3564;53.326;10.356;2023-02-05T06:49:54;3.13;;;2.60;;
7045;SDS011;3564;53.326;10.356;2023-02-05T06:52:20;3.00;;;2.63;;
7045;SDS011;3564;53.326;10.356;2023-02-05T06:54:46;3.40;;;2.90;;
7045;SDS011;3564;53.326;10.356;2023-02-05T06:57:13;3.20;;;2.50;;
7045;SDS011;3564;53.326;10.356;2023-02-05T06:59:38;3.87;;;2.50;;
7045;SDS011;3564;53.326;10.356;2023-02-05T07:02:04;4.17;;;2.60;;
7045;SDS011;3564;53.326;10.356;2023-02-05T07:04:30;6.80;;;2.87;;
7045;SDS011;3564;53.326;10.356;2023-02-05T07:06:56;2.87;;;2.57;;
7045;SDS011;3564;53.326;10.356;2023-02-05T07:09:22;3.07;;;2.73;;
7045;SDS011;3564;53.326;10.356;2023-02-05T07:11:49;2.70;;;2.47;;
7045;SDS011;3564;53.326;10.356;2023-02-05T07:14:14;4.23;;;2.90;;
7045;SDS011;3564;53.326;10.356;2023-02-05T07:16:40;4.93;;;2.40;;
7045;SDS011;3564;53.326;10.356;2023-02-05T07:19:07;4.30;;;2.77;;
7045;SDS011;3564;53.326;10.356;2023-02-05T07:21:33;2.87;;;2.53;;
7045;SDS011;3564;53.326;10.356;2023-02-05T07:23:59;3.10;;;2.77;;
7045;SDS011;3564;53.326;10.356;2023-02-05T07:26:25;3.93;;;2.73;;
7045;SDS011;3564;53.326;10.356;2023-02-05T07:28:51;2.67;;;2.47;;
7045;SDS011;3564;53.326;10.356;2023-02-05T07:31:17;4.00;;;2.80;;
7045;SDS011;3564;53.326;10.356;2023-02-05T07:33:45;4.57;;;2.93;;
7045;SDS011;3564;53.326;10.356;2023-02-05T07:36:12;3.20;;;2.60;;
7045;SDS011;3564;53.326;10.356;2023-02-05T07:38:43;3.60;;;2.80;;
7045;SDS011;3564;53.326;10.356;2023-02-05T07:41:10;3.57;;;2.80;;
7045;SDS011;3564;53.326;10.356;2023-02-05T07:43:37;2.97;;;2.47;;
7045;SDS011;3564;53.326;10.356;2023-02-05T07:46:04;3.40;;;2.70;;
7045;SDS011;3564;53.326;10.356;2023-02-05T07:48:34;5.27;;;2.90;;
7045;SDS011;3564;53.326;10.356;2023-02-05T07:51:00;3.23;;;2.60;;
7045;SDS011;3564;53.326;10.356;2023-02-05T07:53:26;3.13;;;2.47;;
7045;SDS011;3564;53.326;10.356;2023-02-05T07:55:52;5.13;;;2.90;;
7045;SDS011;3564;53.326;10.356;2023-02-05T07:58:18;4.63;;;2.60;;
7045;SDS011;3564;53.326;10.356;2023-02-05T08:00:44;4.00;;;3.37;;
7045;SDS011;3564;53.326;10.356;2023-02-05T08:03:09;3.73;;;2.40;;
7045;SDS011;3564;53.326;10.356;2023-02-05T08:05:35;2.60;;;2.40;;
7045;SDS011;3564;53.326;10.356;2023-02-05T08:08:02;3.47;;;2.97;;
7045;SDS011;3564;53.326;10.356;2023-02-05T08:10:28;3.47;;;3.07;;
7045;SDS011;3564;53.326;10.356;2023-02-05T08:12:53;5.00;;;2.60;;
7045;SDS011;3564;53.326;10.356;2023-02-05T08:15:19;5.07;;;3.17;;
7045;SDS011;3564;53.326;10.356;2023-02-05T08:17:45;8.87;;;5.63;;
7045;SDS011;3564;53.326;10.356;2023-02-05T08:20:11;6.30;;;3.70;;
7045;SDS011;3564;53.326;10.356;2023-02-05T08:22:37;3.80;;;3.07;;
7045;SDS011;3564;53.326;10.356;2023-02-05T08:25:04;4.93;;;3.03;;
7045;SDS011;3564;53.326;10.356;2023-02-05T08:27:34;3.67;;;3.07;;
7045;SDS011;3564;53.326;10.356;2023-02-05T08:30:01;4.33;;;2.83;;
7045;SDS011;3564;53.326;10.356;2023-02-05T08:32:29;3.43;;;2.73;;
7045;SDS011;3564;53.326;10.356;2023-02-05T08:34:55;4.73;;;2.80;;
7045;SDS011;3564;53.326;10.356;2023-02-05T08:37:20;4.00;;;2.57;;
7045;SDS011;3564;53.326;10.356;2023-02-05T08:39:46;3.33;;;2.73;;
7045;SDS011;3564;53.326;10.356;2023-02-05T08:42:13;3.37;;;2.80;;
7045;SDS011;3564;53.326;10.356;2023-02-05T08:44:38;4.17;;;2.47;;
7045;SDS011;3564;53.326;10.356;2023-02-05T08:47:04;3.60;;;2.63;;
7045;SDS011;3564;53.326;10.356;2023-02-05T08:49:30;3.37;;;2.57;;
7045;SDS011;3564;53.326;10.356;2023-02-05T08:51:55;4.03;;;3.07;;
7045;SDS011;3564;53.326;10.356;2023-02-05T08:54:22;8.97;;;5.70;;
7045;SDS011;3564;53.326;10.356;2023-02-05T08:56:49;13.23;;;7.90;;
7045;SDS011;3564;53.326;10.356;2023-02-05T08:59:15;4.47;;;3.40;;
7045;SDS011;3564;53.326;10.356;2023-02-05T09:01:41;3.20;;;2.90;;
7045;SDS011;3564;53.326;10.356;2023-02-05T09:04:10;5.40;;;2.80;;
7045;SDS011;3564;53.326;10.356;2023-02-05T09:06:39;5.30;;;3.20;;
7045;SDS011;3564;53.326;10.356;2023-02-05T09:09:05;3.37;;;2.40;;
7045;SDS011;3564;53.326;10.356;2023-02-05T09:11:30;4.10;;;2.67;;
7045;SDS011;3564;53.326;10.356;2023-02-05T09:13:56;5.33;;;2.80;;
7045;SDS011;3564;53.326;10.356;2023-02-05T09:16:22;3.27;;;2.70;;
7045;SDS011;3564;53.326;10.356;2023-02-05T09:18:49;3.43;;;2.77;;
7045;SDS011;3564;53.326;10.356;2023-02-05T09:21:19;2.87;;;2.57;;
7045;SDS011;3564;53.326;10.356;2023-02-05T09:23:45;3.83;;;2.93;;
7045;SDS011;3564;53.326;10.356;2023-02-05T09:26:11;4.10;;;3.00;;
7045;SDS011;3564;53.326;10.356;2023-02-05T09:28:36;4.60;;;3.20;;
7045;SDS011;3564;53.326;10.356;2023-02-05T09:31:06;3.83;;;2.97;;
7045;SDS011;3564;53.326;10.356;2023-02-05T09:33:34;3.87;;;2.77;;
7045;SDS011;3564;53.326;10.356;2023-02-05T09:36:06;3.20;;;2.90;;
7045;SDS011;3564;53.326;10.356;2023-02-05T09:38:37;4.27;;;2.70;;
7045;SDS011;3564;53.326;10.356;2023-02-05T09:43:50;5.73;;;3.27;;
7045;SDS011;3564;53.326;10.356;2023-02-05T09:46:35;17.93;;;12.10;;
7045;SDS011;3564;53.326;10.356;2023-02-05T09:49:13;33.37;;;17.83;;
7045;SDS011;3564;53.326;10.356;2023-02-05T09:51:47;4.73;;;3.50;;
7045;SDS011;3564;53.326;10.356;2023-02-05T09:54:16;3.20;;;2.67;;
7045;SDS011;3564;53.326;10.356;2023-02-05T09:56:49;3.80;;;2.37;;
7045;SDS011;3564;53.326;10.356;2023-02-05T09:59:20;2.57;;;2.37;;
7045;SDS011;3564;53.326;10.356;2023-02-05T10:01:51;4.13;;;3.17;;
7045;SDS011;3564;53.326;10.356;2023-02-05T10:04:17;4.17;;;3.57;;
7045;SDS011;3564;53.326;10.356;2023-02-05T10:20:35;3.13;;;2.70;;
7045;SDS011;3564;53.326;10.356;2023-02-05T10:23:16;4.70;;;3.37;;
7045;SDS011;3564;53.326;10.356;2023-02-05T10:31:01;5.17;;;3.00;;
7045;SDS011;3564;53.326;10.356;2023-02-05T10:33:43;4.73;;;3.50;;
7045;SDS011;3564;53.326;10.356;2023-02-05T10:36:13;3.27;;;2.87;;
7045;SDS011;3564;53.326;10.356;2023-02-05T10:38:44;5.33;;;4.83;;
7045;SDS011;3564;53.326;10.356;2023-02-05T10:41:30;5.00;;;4.17;;
7045;SDS011;3564;53.326;10.356;2023-02-05T10:46:43;3.97;;;2.80;;
7045;SDS011;3564;53.326;10.356;2023-02-05T10:49:39;3.93;;;2.60;;
7045;SDS011;3564;53.326;10.356;2023-02-05T10:52:13;10.40;;;7.20;;
7045;SDS011;3564;53.326;10.356;2023-02-05T10:54:40;5.73;;;3.87;;
7045;SDS011;3564;53.326;10.356;2023-02-05T10:57:10;4.60;;;3.57;;
7045;SDS011;3564;53.326;10.356;2023-02-05T11:00:01;5.97;;;3.53;;
7045;SDS011;3564;53.326;10.356;2023-02-05T11:02:37;5.07;;;3.13;;
7045;SDS011;3564;53.326;10.356;2023-02-05T11:11:04;6.10;;;3.40;;
7045;SDS011;3564;53.326;10.356;2023-02-05T11:13:31;3.27;;;2.97;;
7045;SDS011;3564;53.326;10.356;2023-02-05T11:16:01;5.47;;;3.80;;
7045;SDS011;3564;53.326;10.356;2023-02-05T11:18:39;3.70;;;3.03;;
7045;SDS011;3564;53.326;10.356;2023-02-05T11:21:08;6.20;;;4.47;;
7045;SDS011;3564;53.326;10.356;2023-02-05T11:23:35;4.80;;;3.53;;
7045;SDS011;3564;53.326;10.356;2023-02-05T11:26:20;6.50;;;4.83;;
7045;SDS011;3564;53.326;10.356;2023-02-05T11:28:47;4.23;;;3.40;;
7045;SDS011;3564;53.326;10.356;2023-02-05T11:31:22;4.07;;;2.93;;
7045;SDS011;3564;53.326;10.356;2023-02-05T11:36:33;13.73;;;8.90;;
7045;SDS011;3564;53.326;10.356;2023-02-05T11:39:01;18.70;;;12.03;;
7045;SDS011;3564;53.326;10.356;2023-02-05T11:41:35;5.93;;;3.73;;
7045;SDS011;3564;53.326;10.356;2023-02-05T11:44:23;7.13;;;6.23;;
7045;SDS011;3564;53.326;10.356;2023-02-05T11:46:51;6.73;;;3.90;;
7045;SDS011;3564;53.326;10.356;2023-02-05T11:49:21;5.63;;;4.67;;
7045;SDS011;3564;53.326;10.356;2023-02-05T11:51:51;4.37;;;3.60;;
7045;SDS011;3564;53.326;10.356;2023-02-05T11:59:31;3.97;;;3.00;;
7045;SDS011;3564;53.326;10.356;2023-02-05T12:05:00;5.20;;;2.90;;
7045;SDS011;3564;53.326;10.356;2023-02-05T12:26:22;3.40;;;3.00;;
7045;SDS011;3564;53.326;10.356;2023-02-05T12:39:44;4.67;;;3.20;;
7045;SDS011;3564;53.326;10.356;2023-02-05T12:45:47;2.83;;;2.53;;
7045;SDS011;3564;53.326;10.356;2023-02-05T12:56:39;6.27;;;3.20;;
7045;SDS011;3564;53.326;10.356;2023-02-05T12:59:14;3.77;;;3.10;;
7045;SDS011;3564;53.326;10.356;2023-02-05T13:01:56;4.43;;;3.13;;
7045;SDS011;3564;53.326;10.356;2023-02-05T13:06:56;4.87;;;4.03;;
7045;SDS011;3564;53.326;10.356;2023-02-05T13:09:44;4.27;;;3.87;;
7045;SDS011;3564;53.326;10.356;2023-02-05T13:12:14;5.77;;;3.70;;
7045;SDS011;3564;53.326;10.356;2023-02-05T13:14:52;4.17;;;3.40;;
7045;SDS011;3564;53.326;10.356;2023-02-05T13:17:33;5.27;;;3.03;;
7045;SDS011;3564;53.326;10.356;2023-02-05T13:20:10;4.90;;;3.57;;
7045;SDS011;3564;53.326;10.356;2023-02-05T13:22:54;7.03;;;4.70;;
7045;SDS011;3564;53.326;10.356;2023-02-05T13:25:44;5.40;;;4.87;;
7045;SDS011;3564;53.326;10.356;2023-02-05T13:28:35;4.97;;;4.43;;
7045;SDS011;3564;53.326;10.356;2023-02-05T13:31:05;4.10;;;3.30;;
7045;SDS011;3564;53.326;10.356;2023-02-05T13:33:55;4.80;;;3.33;;
7045;SDS011;3564;53.326;10.356;2023-02-05T13:45:01;5.57;;;3.40;;
7045;SDS011;3564;53.326;10.356;2023-02-05T13:47:48;4.20;;;3.20;;
7045;SDS011;3564;53.326;10.356;2023-02-05T13:58:50;4.47;;;3.43;;
7045;SDS011;3564;53.326;10.356;2023-02-05T14:01:23;4.23;;;3.60;;
7045;SDS011;3564;53.326;10.356;2023-02-05T14:03:57;5.00;;;3.73;;
7045;SDS011;3564;53.326;10.356;2023-02-05T14:06:35;3.73;;;3.30;;
7045;SDS011;3564;53.326;10.356;2023-02-05T14:09:16;4.53;;;3.50;;
7045;SDS011;3564;53.326;10.356;2023-02-05T14:11:53;4.93;;;3.10;;
7045;SDS011;3564;53.326;10.356;2023-02-05T14:16:52;4.83;;;3.60;;
7045;SDS011;3564;53.326;10.356;2023-02-05T14:22:04;4.40;;;3.27;;
7045;SDS011;3564;53.326;10.356;2023-02-05T14:27:42;4.47;;;3.30;;
7045;SDS011;3564;53.326;10.356;2023-02-05T14:33:00;4.37;;;3.87;;
7045;SDS011;3564;53.326;10.356;2023-02-05T14:35:33;4.30;;;3.10;;
7045;SDS011;3564;53.326;10.356;2023-02-05T14:38:14;4.93;;;3.30;;
7045;SDS011;3564;53.326;10.356;2023-02-05T14:43:42;5.10;;;3.60;;
7045;SDS011;3564;53.326;10.356;2023-02-05T14:48:56;5.13;;;3.73;;
7045;SDS011;3564;53.326;10.356;2023-02-05T14:51:26;4.10;;;3.47;;
7045;SDS011;3564;53.326;10.356;2023-02-05T14:53:55;4.93;;;3.60;;
7045;SDS011;3564;53.326;10.356;2023-02-05T14:56:48;6.83;;;4.40;;
7045;SDS011;3564;53.326;10.356;2023-02-05T15:01:53;6.47;;;4.53;;
7045;SDS011;3564;53.326;10.356;2023-02-05T15:06:48;6.33;;;4.33;;
7045;SDS011;3564;53.326;10.356;2023-02-05T15:09:16;6.73;;;4.33;;
7045;SDS011;3564;53.326;10.356;2023-02-05T15:16:44;5.43;;;4.00;;
7045;SDS011;3564;53.326;10.356;2023-02-05T15:19:29;8.03;;;5.73;;
7045;SDS011;3564;53.326;10.356;2023-02-05T15:22:35;66.50;;;39.17;;
7045;SDS011;3564;53.326;10.356;2023-02-05T15:25:08;24.57;;;15.77;;
7045;SDS011;3564;53.326;10.356;2023-02-05T15:27:49;6.30;;;4.83;;
7045;SDS011;3564;53.326;10.356;2023-02-05T15:30:22;5.80;;;3.90;;
7045;SDS011;3564;53.326;10.356;2023-02-05T15:32:53;6.97;;;3.87;;
7045;SDS011;3564;53.326;10.356;2023-02-05T15:35:27;6.60;;;3.83;;
7045;SDS011;3564;53.326;10.356;2023-02-05T15:37:58;6.17;;;3.43;;
7045;SDS011;3564;53.326;10.356;2023-02-05T15:40:31;5.93;;;3.63;;
7045;SDS011;3564;53.326;10.356;2023-02-05T15:43:08;6.53;;;3.77;;
7045;SDS011;3564;53.326;10.356;2023-02-05T15:45:39;5.50;;;3.30;;
7045;SDS011;3564;53.326;10.356;2023-02-05T15:50:44;16.10;;;11.33;;
7045;SDS011;3564;53.326;10.356;2023-02-05T15:53:37;9.87;;;6.30;;
7045;SDS011;3564;53.326;10.356;2023-02-05T15:58:36;5.27;;;3.17;;
7045;SDS011;3564;53.326;10.356;2023-02-05T16:01:03;4.60;;;3.50;;
7045;SDS011;3564;53.326;10.356;2023-02-05T16:03:30;4.60;;;3.20;;
7045;SDS011;3564;53.326;10.356;2023-02-05T16:05:57;5.17;;;3.77;;
7045;SDS011;3564;53.326;10.356;2023-02-05T16:08:23;3.70;;;3.40;;
7045;SDS011;3564;53.326;10.356;2023-02-05T16:10:52;4.57;;;2.93;;
7045;SDS011;3564;53.326;10.356;2023-02-05T16:13:21;4.47;;;3.30;;
7045;SDS011;3564;53.326;10.356;2023-02-05T16:15:51;4.17;;;3.50;;
7045;SDS011;3564;53.326;10.356;2023-02-05T16:18:41;6.27;;;3.80;;
7045;SDS011;3564;53.326;10.356;2023-02-05T16:21:26;5.33;;;4.03;;
7045;SDS011;3564;53.326;10.356;2023-02-05T16:29:48;5.47;;;3.23;;
7045;SDS011;3564;53.326;10.356;2023-02-05T16:34:50;5.03;;;3.23;;
7045;SDS011;3564;53.326;10.356;2023-02-05T16:37:17;6.00;;;3.70;;
7045;SDS011;3564;53.326;10.356;2023-02-05T16:40:02;5.07;;;3.87;;
7045;SDS011;3564;53.326;10.356;2023-02-05T16:42:43;8.80;;;5.30;;
7045;SDS011;3564;53.326;10.356;2023-02-05T16:45:16;7.37;;;5.30;;
7045;SDS011;3564;53.326;10.356;2023-02-05T16:48:17;9.27;;;6.30;;
7045;SDS011;3564;53.326;10.356;2023-02-05T16:53:51;9.57;;;6.87;;
7045;SDS011;3564;53.326;10.356;2023-02-05T16:56:20;11.27;;;9.00;;
7045;SDS011;3564;53.326;10.356;2023-02-05T16:58:50;9.93;;;8.00;;
7045;SDS011;3564;53.326;10.356;2023-02-05T17:01:23;8.03;;;6.47;;
7045;SDS011;3564;53.326;10.356;2023-02-05T17:03:52;8.20;;;5.57;;
7045;SDS011;3564;53.326;10.356;2023-02-05T17:06:19;8.87;;;6.00;;
7045;SDS011;3564;53.326;10.356;2023-02-05T17:08:54;6.73;;;5.50;;
7045;SDS011;3564;53.326;10.356;2023-02-05T17:14:27;12.43;;;8.47;;
7045;SDS011;3564;53.326;10.356;2023-02-05T17:19:30;16.30;;;12.07;;
7045;SDS011;3564;53.326;10.356;2023-02-05T17:24:39;21.70;;;13.93;;
7045;SDS011;3564;53.326;10.356;2023-02-05T17:27:07;19.47;;;12.57;;
7045;SDS011;3564;53.326;10.356;2023-02-05T17:29:51;14.03;;;8.90;;
7045;SDS011;3564;53.326;10.356;2023-02-05T17:32:17;9.87;;;7.20;;
7045;SDS011;3564;53.326;10.356;2023-02-05T17:34:44;8.27;;;5.97;;
7045;SDS011;3564;53.326;10.356;2023-02-05T17:37:11;11.40;;;7.80;;
7045;SDS011;3564;53.326;10.356;2023-02-05T17:39:37;11.23;;;7.70;;
7045;SDS011;3564;53.326;10.356;2023-02-05T17:42:04;10.00;;;7.93;;
7045;SDS011;3564;53.326;10.356;2023-02-05T17:44:34;13.20;;;9.10;;
7045;SDS011;3564;53.326;10.356;2023-02-05T17:47:01;12.40;;;9.33;;
7045;SDS011;3564;53.326;10.356;2023-02-05T17:49:27;15.83;;;10.23;;
7045;SDS011;3564;53.326;10.356;2023-02-05T17:51:53;8.77;;;7.17;;
7045;SDS011;3564;53.326;10.356;2023-02-05T17:54:19;7.37;;;6.30;;
7045;SDS011;3564;53.326;10.356;2023-02-05T17:56:47;9.23;;;6.40;;
7045;SDS011;3564;53.326;10.356;2023-02-05T17:59:15;6.67;;;5.00;;
7045;SDS011;3564;53.326;10.356;2023-02-05T18:01:42;5.57;;;4.63;;
7045;SDS011;3564;53.326;10.356;2023-02-05T18:04:08;5.70;;;4.20;;
7045;SDS011;3564;53.326;10.356;2023-02-05T18:06:34;8.50;;;4.80;;
7045;SDS011;3564;53.326;10.356;2023-02-05T18:09:01;11.67;;;7.27;;
7045;SDS011;3564;53.326;10.356;2023-02-05T18:11:29;18.53;;;11.60;;
7045;SDS011;3564;53.326;10.356;2023-02-05T18:13:55;27.53;;;18.73;;
7045;SDS011;3564;53.326;10.356;2023-02-05T18:16:21;57.63;;;36.60;;